createdAt,value
2023-03-20T00:02:24.533Z,100896.31
2023-03-20T00:04:51.880Z,100901.00
2023-03-20T00:07:19.007Z,100902.13
2023-03-20T00:09:46.182Z,100897.81
2023-03-20T00:12:25.123Z,100897.78
2023-03-20T00:14:52.386Z,100903.22
2023-03-20T00:17:21.472Z,100897.72
2023-03-20T00:19:51.352Z,100905.88
2023-03-20T00:22:18.416Z,100899.63
2023-03-20T00:24:46.035Z,100890.09
2023-03-20T00:27:17.627Z,100890.63
2023-03-20T00:29:44.889Z,100889.94
2023-03-20T00:32:14.243Z,100893.13
2023-03-20T00:34:41.782Z,100889.78
2023-03-20T00:37:11.679Z,100891.38
2023-03-20T00:39:39.061Z,100889.94
2023-03-20T00:42:13.362Z,100887.59
2023-03-20T00:44:56.110Z,100895.28
2023-03-20T00:47:24.514Z,100890.28
2023-03-20T00:49:54.185Z,100882.69
2023-03-20T00:52:22.488Z,100885.81
2023-03-20T00:54:49.566Z,100888.88
2023-03-20T00:57:37.853Z,100884.09
2023-03-20T01:00:21.338Z,100883.03
2023-03-20T01:02:48.949Z,100880.63
2023-03-20T01:05:16.786Z,100887.22
2023-03-20T01:07:45.459Z,100878.97
2023-03-20T01:10:13.594Z,100884.47
2023-03-20T01:12:43.075Z,100885.31
2023-03-20T01:15:34.096Z,100877.25
2023-03-20T01:18:01.365Z,100872.78
2023-03-20T01:20:32.311Z,100880.19
2023-03-20T01:22:59.499Z,100880.97
2023-03-20T01:25:26.662Z,100884.25
2023-03-20T01:27:54.981Z,100884.94
2023-03-20T01:30:30.588Z,100882.38
2023-03-20T01:32:59.908Z,100888.53
2023-03-20T01:35:29.023Z,100894.13
2023-03-20T01:37:56.382Z,100890.69
2023-03-20T01:40:31.132Z,100888.72
2023-03-20T01:42:58.561Z,100885.00
2023-03-20T01:45:36.866Z,100889.25
2023-03-20T01:48:17.798Z,100890.09
2023-03-20T01:50:44.817Z,100897.75
2023-03-20T01:53:25.284Z,100896.31
2023-03-20T01:55:56.997Z,100888.59
2023-03-20T01:58:41.652Z,100888.78
2023-03-20T02:01:13.541Z,100891.22
2023-03-20T02:03:49.880Z,100893.16
2023-03-20T02:06:18.789Z,100887.28
2023-03-20T02:08:50.986Z,100890.06
2023-03-20T02:11:23.505Z,100898.41
2023-03-20T02:13:55.490Z,100903.25
2023-03-20T02:16:22.622Z,100904.50
2023-03-20T02:18:52.824Z,100909.06
2023-03-20T02:22:33.860Z,100900.63
2023-03-20T02:25:57.559Z,100895.75
2023-03-20T02:28:52.265Z,100891.56
2023-03-20T02:31:57.899Z,100891.88
2023-03-20T02:34:52.644Z,100888.63
2023-03-20T02:37:48.015Z,100887.16
2023-03-20T02:40:30.813Z,100889.56
2023-03-20T02:43:29.961Z,100882.16
2023-03-20T02:46:35.763Z,100885.03
2023-03-20T02:49:15.540Z,100889.09
2023-03-20T02:52:02.286Z,100885.16
2023-03-20T02:54:49.410Z,100894.44
2023-03-20T02:57:21.771Z,100897.53
2023-03-20T03:00:33.447Z,100892.63
2023-03-20T03:03:34.192Z,100901.56
2023-03-20T03:06:34.442Z,100891.91
2023-03-20T03:09:17.736Z,100893.78
2023-03-20T03:11:54.147Z,100897.16
2023-03-20T03:14:44.758Z,100902.38
2023-03-20T03:17:15.297Z,100900.22
2023-03-20T03:19:49.391Z,100900.97
2023-03-20T03:22:17.911Z,100895.97
2023-03-20T03:24:50.037Z,100896.09
2023-03-20T03:27:40.987Z,100899.69
2023-03-20T03:30:31.147Z,100900.25
2023-03-20T03:33:28.232Z,100900.25
2023-03-20T03:36:51.706Z,100902.75
2023-03-20T03:39:31.070Z,100901.91
2023-03-20T03:42:24.756Z,100904.16
2023-03-20T03:45:17.219Z,100906.38
2023-03-20T03:48:15.590Z,100902.69
2023-03-20T03:50:53.176Z,100905.28
2023-03-20T03:53:34.474Z,100907.28
2023-03-20T03:56:12.245Z,100905.25
2023-03-20T03:58:52.253Z,100903.09
2023-03-20T04:01:22.742Z,100904.88
2023-03-20T04:03:57.514Z,100906.69
2023-03-20T04:06:27.267Z,100902.16
2023-03-20T04:08:54.480Z,100908.22
2023-03-20T04:11:29.041Z,100911.75
2023-03-20T04:13:56.604Z,100914.06
2023-03-20T04:16:25.770Z,100917.91
2023-03-20T04:18:53.433Z,100923.13
2023-03-20T04:21:20.450Z,100922.50
2023-03-20T04:23:47.583Z,100923.78
2023-03-20T04:26:14.779Z,100928.53
2023-03-20T04:28:42.113Z,100926.13
2023-03-20T04:31:09.272Z,100925.47
2023-03-20T04:33:36.396Z,100927.13
2023-03-20T04:36:03.915Z,100930.44
2023-03-20T04:38:31.311Z,100925.34
2023-03-20T04:41:01.354Z,100930.22
2023-03-20T04:43:28.533Z,100933.38
2023-03-20T04:45:56.341Z,100932.59
2023-03-20T04:48:23.949Z,100931.28
2023-03-20T04:50:51.293Z,100932.84
2023-03-20T04:53:18.936Z,100937.31
2023-03-20T04:55:46.162Z,100940.97
2023-03-20T04:58:13.470Z,100934.28
2023-03-20T05:00:40.776Z,100937.41
2023-03-20T05:03:07.868Z,100939.88
2023-03-20T05:05:38.056Z,100943.41
2023-03-20T05:08:06.417Z,100944.34
2023-03-20T05:10:33.777Z,100938.28
2023-03-20T05:13:01.117Z,100943.59
2023-03-20T05:15:28.455Z,100942.53
2023-03-20T05:17:56.000Z,100941.47
2023-03-20T05:20:23.096Z,100936.59
2023-03-20T05:22:52.039Z,100940.53
2023-03-20T05:25:22.454Z,100937.19
2023-03-20T05:27:49.485Z,100941.41
2023-03-20T05:30:17.037Z,100937.25
2023-03-20T05:32:44.186Z,100937.84
2023-03-20T05:35:12.412Z,100941.19
2023-03-20T05:37:40.448Z,100937.84
2023-03-20T05:40:11.101Z,100939.59
2023-03-20T05:42:38.375Z,100934.94
2023-03-20T05:45:09.981Z,100927.88
2023-03-20T05:47:37.079Z,100933.34
2023-03-20T05:50:05.650Z,100940.31
2023-03-20T05:52:32.723Z,100937.78
2023-03-20T05:54:59.850Z,100938.97
2023-03-20T05:57:32.676Z,100935.63
2023-03-20T06:00:03.079Z,100936.78
2023-03-20T06:02:30.159Z,100940.94
2023-03-20T06:04:57.204Z,100944.22
2023-03-20T06:07:24.391Z,100938.78
2023-03-20T06:09:51.972Z,100940.56
2023-03-20T06:12:19.016Z,100945.03
2023-03-20T06:14:46.091Z,100948.63
2023-03-20T06:17:13.399Z,100954.41
2023-03-20T06:19:41.255Z,100959.59
2023-03-20T06:22:08.764Z,100973.03
2023-03-20T06:24:36.008Z,100979.13
2023-03-20T06:27:03.110Z,100974.00
2023-03-20T06:29:30.332Z,100977.06
2023-03-20T06:31:57.736Z,100978.28
2023-03-20T06:34:24.788Z,100994.72
2023-03-20T06:36:51.874Z,100992.94
2023-03-20T06:39:19.010Z,101006.66
2023-03-20T06:41:58.576Z,101000.63
2023-03-20T06:44:26.951Z,101004.41
2023-03-20T06:46:54.466Z,101007.25
2023-03-20T06:49:24.364Z,101009.16
2023-03-20T06:51:51.408Z,101015.50
2023-03-20T06:54:18.458Z,101014.66
2023-03-20T06:56:45.554Z,101014.06
2023-03-20T06:59:12.784Z,101011.09
2023-03-20T07:01:40.405Z,101015.81
2023-03-20T07:04:08.590Z,101011.03
2023-03-20T07:06:37.019Z,101015.66
2023-03-20T07:09:05.371Z,101009.59
2023-03-20T07:11:34.206Z,101019.63
2023-03-20T07:14:01.914Z,101023.41
2023-03-20T07:16:29.073Z,101021.53
2023-03-20T07:18:56.115Z,101031.25
2023-03-20T07:21:23.818Z,101026.56
2023-03-20T07:23:50.953Z,101038.13
2023-03-20T07:26:18.060Z,101041.44
2023-03-20T07:28:47.889Z,101036.56
2023-03-20T07:31:26.345Z,101029.44
2023-03-20T07:33:53.662Z,101041.00
2023-03-20T07:36:21.241Z,101046.38
2023-03-20T07:38:48.488Z,101051.84
2023-03-20T07:41:15.578Z,101055.41
2023-03-20T07:43:44.723Z,101057.16
2023-03-20T07:46:12.039Z,101057.16
2023-03-20T07:48:39.137Z,101057.59
2023-03-20T07:51:06.827Z,101060.09
2023-03-20T07:53:33.896Z,101063.28
2023-03-20T07:56:01.316Z,101066.50
2023-03-20T07:58:28.336Z,101074.94
2023-03-20T08:00:58.710Z,101067.03
2023-03-20T08:03:26.036Z,101066.31
2023-03-20T08:05:54.010Z,101066.16
2023-03-20T08:08:21.704Z,101063.69
2023-03-20T08:10:48.829Z,101062.44
2023-03-20T08:13:16.382Z,101056.34
2023-03-20T08:15:43.811Z,101063.50
2023-03-20T08:18:12.117Z,101058.44
2023-03-20T08:20:39.236Z,101069.25
2023-03-20T08:23:06.404Z,101065.72
2023-03-20T08:25:34.146Z,101069.84
2023-03-20T08:28:01.898Z,101083.09
2023-03-20T08:30:31.437Z,101077.84
2023-03-20T08:32:59.089Z,101074.50
2023-03-20T08:35:33.346Z,101076.63
2023-03-20T08:38:01.884Z,101083.56
2023-03-20T08:40:32.221Z,101081.63
2023-03-20T08:42:59.609Z,101075.16
2023-03-20T08:45:26.735Z,101077.75
2023-03-20T08:47:54.955Z,101082.84
2023-03-20T08:50:22.525Z,101081.41
2023-03-20T08:52:49.612Z,101078.25
2023-03-20T08:55:17.706Z,101076.03
2023-03-20T08:57:44.808Z,101070.72
2023-03-20T09:00:15.933Z,101071.38
2023-03-20T09:02:43.856Z,101060.53
2023-03-20T09:05:11.907Z,101055.13
2023-03-20T09:07:39.299Z,101045.66
2023-03-20T09:10:07.604Z,101055.47
2023-03-20T09:12:38.023Z,101063.41
2023-03-20T09:15:10.083Z,101058.94
2023-03-20T09:17:37.163Z,101067.97
2023-03-20T09:20:05.381Z,101066.31
2023-03-20T09:22:33.815Z,101060.28
2023-03-20T09:25:00.958Z,101058.50
2023-03-20T09:27:28.402Z,101059.41
2023-03-20T09:29:55.581Z,101061.44
2023-03-20T09:32:22.652Z,101065.59
2023-03-20T09:34:49.815Z,101070.06
2023-03-20T09:37:16.892Z,101068.63
2023-03-20T09:39:44.338Z,101077.56
2023-03-20T09:42:57.234Z,101074.19
2023-03-20T09:46:08.511Z,101077.16
2023-03-20T09:49:19.299Z,101073.91
2023-03-20T09:52:01.450Z,101063.28
2023-03-20T09:54:54.067Z,101071.19
2023-03-20T09:57:32.352Z,101075.19
2023-03-20T10:00:10.373Z,101069.16
2023-03-20T10:03:15.465Z,101070.59
2023-03-20T10:05:56.076Z,101081.88
2023-03-20T10:08:39.159Z,101078.34
2023-03-20T10:12:01.070Z,101080.09
2023-03-20T10:15:08.103Z,101081.06
2023-03-20T10:18:27.767Z,101089.09
2023-03-20T10:21:44.786Z,101076.25
2023-03-20T10:24:36.260Z,101079.25
2023-03-20T10:27:28.367Z,101083.31
2023-03-20T10:30:19.243Z,101080.00
2023-03-20T10:33:32.551Z,101079.22
2023-03-20T10:36:36.153Z,101074.25
2023-03-20T10:39:51.791Z,101064.47
2023-03-20T10:42:28.878Z,101068.09
2023-03-20T10:45:05.660Z,101069.16
2023-03-20T10:47:39.680Z,101069.41
2023-03-20T10:50:17.841Z,101065.34
2023-03-20T10:52:52.130Z,101066.19
2023-03-20T10:55:28.236Z,101061.50
2023-03-20T10:58:22.831Z,101069.78
2023-03-20T11:00:51.397Z,101074.47
2023-03-20T11:03:30.500Z,101068.56
2023-03-20T11:06:16.066Z,101069.41
2023-03-20T11:08:51.303Z,101069.13
2023-03-20T11:11:34.167Z,101064.91
2023-03-20T11:14:21.416Z,101061.13
2023-03-20T11:16:55.979Z,101063.59
2023-03-20T11:19:24.950Z,101059.63
2023-03-20T11:21:57.255Z,101063.22
2023-03-20T11:24:47.297Z,101061.13
2023-03-20T11:27:28.566Z,101062.59
2023-03-20T11:29:57.603Z,101058.97
2023-03-20T11:32:41.936Z,101058.97
2023-03-20T11:35:31.593Z,101062.00
2023-03-20T11:38:21.609Z,101061.41
2023-03-20T11:40:54.580Z,101060.06
2023-03-20T11:43:28.759Z,101054.50
2023-03-20T11:46:00.790Z,101057.69
2023-03-20T11:48:45.841Z,101053.47
2023-03-20T11:51:21.438Z,101044.59
2023-03-20T11:53:48.425Z,101044.25
2023-03-20T11:56:29.218Z,101045.94
2023-03-20T11:59:18.526Z,101042.81
2023-03-20T12:01:52.391Z,101039.38
2023-03-20T12:04:27.336Z,101038.28
2023-03-20T12:06:58.960Z,101038.78
2023-03-20T12:09:46.552Z,101025.81
2023-03-20T12:12:48.384Z,101031.22
2023-03-20T12:15:41.495Z,101024.69
2023-03-20T12:18:50.212Z,101026.22
2023-03-20T12:21:48.332Z,101033.84
2023-03-20T12:24:49.695Z,101028.19
2023-03-20T12:27:49.033Z,101022.88
2023-03-20T12:31:24.267Z,101021.91
2023-03-20T12:34:01.259Z,101018.81
2023-03-20T12:36:44.377Z,101018.06
2023-03-20T12:39:35.314Z,101018.81
2023-03-20T12:42:43.169Z,101018.84
2023-03-20T12:45:23.681Z,101014.59
2023-03-20T12:48:19.735Z,101014.56
2023-03-20T12:51:52.495Z,101015.81
2023-03-20T12:54:56.786Z,101010.81
2023-03-20T12:57:45.576Z,101000.41
2023-03-20T13:00:30.922Z,100997.78
2023-03-20T13:03:47.518Z,101002.09
2023-03-20T13:06:51.099Z,100997.91
2023-03-20T13:09:52.874Z,100993.47
2023-03-20T13:13:05.537Z,100999.50
2023-03-20T13:15:55.636Z,100990.75
2023-03-20T13:19:13.310Z,100991.25
2023-03-20T13:21:46.696Z,100988.13
2023-03-20T13:24:56.769Z,100983.63
2023-03-20T13:28:20.614Z,100986.38
2023-03-20T13:32:00.621Z,100977.84
2023-03-20T13:35:25.721Z,100969.78
2023-03-20T13:38:06.379Z,100980.44
2023-03-20T13:40:46.239Z,100973.63
2023-03-20T13:43:54.226Z,100970.47
2023-03-20T13:46:46.711Z,100970.97
2023-03-20T13:49:37.606Z,100975.88
2023-03-20T13:52:40.548Z,100976.84
2023-03-20T13:55:44.522Z,100974.00
2023-03-20T13:58:59.015Z,100965.19
2023-03-20T14:02:07.752Z,100969.63
2023-03-20T14:04:35.622Z,100974.91
2023-03-20T14:07:03.062Z,100976.16
2023-03-20T14:09:37.266Z,100964.78
2023-03-20T14:12:12.519Z,100975.75
2023-03-20T14:15:01.005Z,100972.09
2023-03-20T14:17:31.465Z,100959.75
2023-03-20T14:20:24.382Z,100971.84
2023-03-20T14:22:52.159Z,100966.91
2023-03-20T14:25:23.833Z,100969.19
2023-03-20T14:28:01.000Z,100974.91
2023-03-20T14:30:31.266Z,100974.06
2023-03-20T14:33:21.783Z,100973.22
2023-03-20T14:36:26.378Z,100968.59
2023-03-20T14:39:30.334Z,100973.66
2023-03-20T14:42:37.314Z,100965.16
2023-03-20T14:45:13.872Z,100968.31
2023-03-20T14:48:23.525Z,100975.03
2023-03-20T14:51:06.666Z,100954.50
2023-03-20T14:53:34.220Z,100951.91
2023-03-20T14:56:15.524Z,100959.09
2023-03-20T14:58:55.996Z,100957.38
2023-03-20T15:01:23.090Z,100963.97
2023-03-20T15:03:59.113Z,100949.56
2023-03-20T15:06:29.249Z,100941.38
2023-03-20T15:09:10.731Z,100952.09
2023-03-20T15:11:38.774Z,100951.78
2023-03-20T15:14:08.755Z,100951.91
2023-03-20T15:16:38.432Z,100950.44
2023-03-20T15:19:22.053Z,100950.50
2023-03-20T15:21:50.065Z,100951.03
2023-03-20T15:24:30.477Z,100946.50
2023-03-20T15:27:02.554Z,100946.88
2023-03-20T15:29:32.557Z,100932.03
2023-03-20T15:32:17.105Z,100933.53
2023-03-20T15:34:47.520Z,100934.97
2023-03-20T15:37:23.505Z,100938.28
2023-03-20T15:39:56.231Z,100936.91
2023-03-20T15:42:26.147Z,100936.31
2023-03-20T15:44:56.383Z,100932.44
2023-03-20T15:47:26.251Z,100934.09
2023-03-20T15:50:00.707Z,100934.16
2023-03-20T15:52:43.143Z,100945.06
2023-03-20T15:55:20.081Z,100944.47
2023-03-20T15:57:50.307Z,100936.63
2023-03-20T16:00:35.238Z,100945.56
2023-03-20T16:03:08.696Z,100946.13
2023-03-20T16:05:36.490Z,100949.03
2023-03-20T16:08:27.598Z,100948.63
2023-03-20T16:11:14.818Z,100946.00
2023-03-20T16:13:48.547Z,100940.03
2023-03-20T16:16:24.639Z,100939.25
2023-03-20T16:18:52.159Z,100946.22
2023-03-20T16:21:27.765Z,100945.56
2023-03-20T16:23:59.453Z,100950.28
2023-03-20T16:26:27.929Z,100941.63
2023-03-20T16:29:04.265Z,100956.78
2023-03-20T16:31:42.290Z,100958.09
2023-03-20T16:34:20.888Z,100955.53
2023-03-20T16:36:58.269Z,100951.41
2023-03-20T16:39:30.758Z,100958.84
2023-03-20T16:42:08.384Z,100953.84
2023-03-20T16:44:37.227Z,100960.19
2023-03-20T16:47:33.108Z,100954.09
2023-03-20T16:50:23.293Z,100958.84
2023-03-20T16:52:58.793Z,100952.28
2023-03-20T16:55:44.045Z,100957.25
2023-03-20T16:58:27.779Z,100960.75
2023-03-20T17:01:15.163Z,100954.38
2023-03-20T17:04:11.616Z,100954.72
2023-03-20T17:06:54.385Z,100955.56
2023-03-20T17:09:31.437Z,100960.63
2023-03-20T17:12:16.271Z,100967.22
2023-03-20T17:14:45.571Z,100962.28
2023-03-20T17:17:22.183Z,100965.59
2023-03-20T17:19:50.406Z,100969.59
2023-03-20T17:22:25.356Z,100964.91
2023-03-20T17:24:53.206Z,100968.25
2023-03-20T17:27:21.365Z,100966.50
2023-03-20T17:29:49.753Z,100971.78
2023-03-20T17:32:23.835Z,100976.44
2023-03-20T17:34:51.612Z,100978.13
2023-03-20T17:37:30.278Z,100970.19
2023-03-20T17:39:58.244Z,100970.66
2023-03-20T17:42:31.518Z,100969.56
2023-03-20T17:45:03.450Z,100974.97
2023-03-20T17:47:31.323Z,100969.56
2023-03-20T17:49:58.847Z,100973.09
2023-03-20T17:52:28.772Z,100976.75
2023-03-20T17:54:56.472Z,100978.00
2023-03-20T17:57:36.578Z,100977.75
2023-03-20T18:00:13.308Z,100975.47
2023-03-20T18:02:40.789Z,100976.28
2023-03-20T18:05:08.987Z,100973.56
2023-03-20T18:07:36.681Z,100975.94
2023-03-20T18:10:40.615Z,100974.69
2023-03-20T18:13:07.976Z,100967.88
2023-03-20T18:15:35.388Z,100967.03
2023-03-20T18:18:02.662Z,100979.00
2023-03-20T18:20:33.484Z,100973.75
2023-03-20T18:23:00.792Z,100973.16
2023-03-20T18:25:28.458Z,100977.19
2023-03-20T18:27:58.998Z,100977.28
2023-03-20T18:30:35.120Z,100980.59
2023-03-20T18:33:03.143Z,100974.94
2023-03-20T18:35:30.771Z,100981.06
2023-03-20T18:37:58.932Z,100971.59
2023-03-20T18:40:37.205Z,100979.97
2023-03-20T18:43:04.884Z,100975.78
2023-03-20T18:45:32.729Z,100982.69
2023-03-20T18:48:03.790Z,100977.44
2023-03-20T18:50:38.491Z,100979.06
2023-03-20T18:53:07.913Z,100975.25
2023-03-20T18:55:36.760Z,100976.03
2023-03-20T18:58:06.528Z,100981.97
2023-03-20T19:00:40.639Z,100980.97
2023-03-20T19:03:10.619Z,100988.03
2023-03-20T19:05:38.386Z,100985.63
2023-03-20T19:08:06.640Z,100989.41
2023-03-20T19:10:43.813Z,100990.78
2023-03-20T19:13:21.128Z,100992.34
2023-03-20T19:15:48.417Z,100993.03
2023-03-20T19:18:20.024Z,100986.78
2023-03-20T19:20:55.695Z,100997.09
2023-03-20T19:23:27.212Z,100991.00
2023-03-20T19:25:55.239Z,100992.41
2023-03-20T19:28:39.244Z,101001.91
2023-03-20T19:31:09.231Z,100991.22
2023-03-20T19:33:38.740Z,100998.25
2023-03-20T19:36:08.855Z,101001.53
2023-03-20T19:38:37.335Z,101005.88
2023-03-20T19:41:04.783Z,101000.19
2023-03-20T19:43:32.340Z,100994.88
2023-03-20T19:46:00.208Z,100995.94
2023-03-20T19:48:46.129Z,100992.41
2023-03-20T19:51:25.521Z,100990.03
2023-03-20T19:53:54.240Z,100988.81
2023-03-20T19:56:23.560Z,100990.44
2023-03-20T19:58:51.302Z,100997.50
2023-03-20T20:01:23.859Z,100995.13
2023-03-20T20:03:57.422Z,100995.94
2023-03-20T20:06:31.238Z,100995.00
2023-03-20T20:09:01.489Z,100996.38
2023-03-20T20:11:29.201Z,100994.53
2023-03-20T20:16:45.341Z,100991.41
2023-03-20T20:19:12.926Z,100990.34
2023-03-20T20:24:27.744Z,100996.97
2023-03-20T20:27:15.261Z,100994.69
2023-03-20T20:29:47.775Z,100994.78
2023-03-20T20:32:16.170Z,100990.44
2023-03-20T20:40:21.000Z,100989.28
2023-03-20T20:42:51.547Z,100985.03
2023-03-20T20:45:20.948Z,100984.38
2023-03-20T20:47:49.264Z,100979.97
2023-03-20T20:50:21.995Z,100979.72
2023-03-20T20:52:50.115Z,100990.47
2023-03-20T20:55:23.109Z,100994.06
2023-03-20T20:57:55.415Z,100995.34
2023-03-20T21:00:37.260Z,100996.41
2023-03-20T21:03:08.716Z,100995.66
2023-03-20T21:05:37.495Z,100987.34
2023-03-20T21:08:04.771Z,100986.94
2023-03-20T21:10:31.825Z,100979.53
2023-03-20T21:12:59.981Z,100975.00
2023-03-20T21:15:30.475Z,100982.53
2023-03-20T21:18:01.421Z,100977.66
2023-03-20T21:20:31.391Z,100976.31
2023-03-20T21:22:58.908Z,100975.66
2023-03-20T21:25:39.184Z,100979.22
2023-03-20T21:28:09.746Z,100978.16
2023-03-20T21:30:44.178Z,100971.72
2023-03-20T21:33:18.095Z,100977.63
2023-03-20T21:35:47.533Z,100981.75
2023-03-20T21:41:11.581Z,100996.63
2023-03-20T21:43:39.521Z,100988.31
2023-03-20T21:46:42.328Z,100991.41
2023-03-20T21:55:04.184Z,100994.00
2023-03-20T22:02:58.928Z,100988.56
2023-03-20T22:06:31.830Z,100986.41
2023-03-20T22:09:13.872Z,100992.13
2023-03-20T22:23:07.556Z,100987.00
2023-03-20T22:28:36.700Z,100987.97
2023-03-20T22:31:26.887Z,100984.31
2023-03-20T22:37:23.155Z,100986.09
2023-03-20T22:39:45.801Z,100985.41
2023-03-20T22:42:35.262Z,100981.38
2023-03-20T22:44:59.240Z,100981.63
2023-03-20T22:47:26.662Z,100991.41
2023-03-20T22:49:53.788Z,100989.97
2023-03-20T22:52:31.674Z,100985.44
2023-03-20T22:54:59.625Z,100985.59
2023-03-20T22:57:40.220Z,100986.03
2023-03-20T23:00:12.406Z,100992.38
2023-03-20T23:02:39.639Z,100988.31
2023-03-20T23:05:08.085Z,100998.22
2023-03-20T23:07:37.160Z,100989.50
2023-03-20T23:10:06.185Z,100987.72
2023-03-20T23:12:33.402Z,100987.03
2023-03-20T23:15:00.527Z,100995.22
2023-03-20T23:17:27.648Z,100988.66
2023-03-20T23:20:08.725Z,100996.00
2023-03-20T23:22:38.544Z,100989.53
2023-03-20T23:25:16.489Z,100993.22
2023-03-20T23:27:51.316Z,100992.63
2023-03-20T23:30:19.793Z,100996.69
2023-03-20T23:32:47.024Z,100991.63
2023-03-20T23:35:14.155Z,100992.53
2023-03-20T23:37:41.371Z,100993.97
2023-03-20T23:40:09.754Z,100989.19
2023-03-20T23:42:36.922Z,100989.19
2023-03-20T23:45:19.142Z,100985.38
2023-03-20T23:47:48.199Z,100988.94
2023-03-20T23:50:27.694Z,100981.94
2023-03-20T23:53:13.215Z,100985.59
2023-03-20T23:55:48.783Z,100986.44
2023-03-20T23:58:16.834Z,100989.16
